Time;durP1;ratioP1;P1;durP2;ratioP2;P2;SDS_P1;SDS_P2;PMS_P1;PMS_P2;Temp;Humidity;BMP_temperature;BMP_pressure;BME280_temperature;BME280_humidity;BME280_pressure;Samples;Min_cycle;Max_cycle;Signal;HPM_P1;HPM_P2
2022/08/07 00:00:26;;;;;;;15.80;5.28;;;;;;;12.40;81.51;102500.88;5063442;28;20025;-74
2022/08/07 00:02:52;;;;;;;16.85;5.43;;;;;;;12.35;81.37;102497.59;5063849;28;20400;-74
2022/08/07 00:05:17;;;;;;;14.13;5.65;;;;;;;12.34;81.55;102493.16;5066456;28;20028;-74
2022/08/07 00:07:42;;;;;;;15.32;5.60;;;;;;;12.34;81.50;102495.84;5066500;28;20020;-74
2022/08/07 00:10:08;;;;;;;15.07;5.47;;;;;;;12.31;81.78;102501.41;5062250;28;20047;-74
2022/08/07 00:12:34;;;;;;;13.25;5.13;;;;;;;12.26;81.69;102492.72;5065898;28;20083;-74
2022/08/07 00:14:59;;;;;;;13.70;5.22;;;;;;;12.26;81.63;102490.88;5065672;28;20059;-74
2022/08/07 00:17:24;;;;;;;16.63;5.82;;;;;;;12.24;81.65;102490.97;5063115;28;20032;-74
2022/08/07 00:19:49;;;;;;;14.52;5.15;;;;;;;12.23;81.56;102491.03;5064366;28;20025;-74
2022/08/07 00:22:15;;;;;;;14.20;5.60;;;;;;;12.19;81.66;102484.06;5065174;28;20033;-74
2022/08/07 00:24:40;;;;;;;16.25;5.88;;;;;;;12.17;81.87;102489.53;5070923;28;20024;-74
2022/08/07 00:27:06;;;;;;;15.75;6.07;;;;;;;12.16;82.51;102477.00;5071216;28;20113;-74
2022/08/07 00:29:31;;;;;;;17.45;6.13;;;;;;;12.13;82.41;102471.78;5071614;28;20040;-74
2022/08/07 00:31:58;;;;;;;12.93;5.07;;;;;;;12.11;82.39;102471.00;5070417;28;20094;-74
2022/08/07 00:34:25;;;;;;;18.63;6.35;;;;;;;12.08;82.51;102473.88;5071070;28;20114;-74
2022/08/07 00:36:51;;;;;;;16.65;6.15;;;;;;;12.04;82.52;102472.28;5068107;28;20039;-74
2022/08/07 00:39:18;;;;;;;12.35;5.22;;;;;;;12.03;82.72;102471.41;5071714;28;20033;-74
2022/08/07 00:41:51;;;;;;;17.70;5.68;;;;;;;12.01;82.41;102467.06;5069167;28;20028;-74
2022/08/07 00:44:16;;;;;;;14.25;5.43;;;;;;;11.98;82.68;102462.72;5069183;28;20109;-74
2022/08/07 00:46:41;;;;;;;14.98;5.68;;;;;;;11.96;82.46;102458.34;5060074;28;20100;-74
2022/08/07 00:49:08;;;;;;;18.00;6.47;;;;;;;11.94;82.87;102458.44;5068292;28;20036;-74
2022/08/07 00:51:33;;;;;;;15.55;5.90;;;;;;;11.92;82.65;102465.72;5070907;28;20101;-74
2022/08/07 00:53:59;;;;;;;16.10;5.45;;;;;;;11.92;83.09;102465.72;5064439;28;20063;-74
2022/08/07 00:56:24;;;;;;;17.13;6.43;;;;;;;11.89;82.84;102464.03;5069160;28;20117;-74
2022/08/07 00:58:49;;;;;;;18.70;6.28;;;;;;;11.91;82.78;102463.97;5072547;28;20031;-74
2022/08/07 01:01:16;;;;;;;15.60;6.40;;;;;;;11.88;82.59;102462.28;5068007;28;20023;-73
2022/08/07 01:03:41;;;;;;;16.02;5.43;;;;;;;11.87;83.06;102459.69;5069393;28;20190;-73
2022/08/07 01:06:08;;;;;;;18.27;6.40;;;;;;;11.87;83.44;102448.91;5071019;28;20103;-73
2022/08/07 01:08:33;;;;;;;17.77;6.80;;;;;;;11.83;83.17;102445.50;5070880;28;20500;-73
2022/08/07 01:10:59;;;;;;;18.10;6.30;;;;;;;11.81;83.80;102447.41;5070722;28;20035;-73
2022/08/07 01:13:25;;;;;;;17.60;6.43;;;;;;;11.79;83.86;102452.00;5067462;28;20028;-73
2022/08/07 01:15:51;;;;;;;17.67;6.38;;;;;;;11.77;83.47;102443.16;5071243;28;20131;-73
2022/08/07 01:18:17;;;;;;;17.50;6.65;;;;;;;11.74;83.17;102445.97;5070840;28;20078;-73
2022/08/07 01:20:47;;;;;;;17.83;6.53;;;;;;;11.73;83.24;102444.25;5069764;28;20455;-73
2022/08/07 01:23:13;;;;;;;15.25;5.82;;;;;;;11.72;83.60;102442.50;5070190;28;20477;-73
2022/08/07 01:25:39;;;;;;;16.70;6.22;;;;;;;11.71;83.61;102438.06;5071219;28;20145;-73
2022/08/07 01:28:05;;;;;;;15.68;6.20;;;;;;;11.69;83.68;102437.28;5069936;28;20028;-73
2022/08/07 01:30:31;;;;;;;16.92;6.80;;;;;;;11.67;83.43;102442.75;5070730;28;20059;-73
2022/08/07 01:32:57;;;;;;;18.30;6.47;;;;;;;11.64;83.56;102431.25;5067220;28;20058;-73
2022/08/07 01:35:22;;;;;;;16.67;6.90;;;;;;;11.59;83.74;102427.94;5070986;28;20035;-73
2022/08/07 01:37:49;;;;;;;18.23;6.55;;;;;;;11.58;83.95;102434.28;5071152;28;20107;-73
2022/08/07 01:40:19;;;;;;;15.55;6.25;;;;;;;11.59;83.72;102436.03;5069990;28;20440;-73
2022/08/07 01:42:44;;;;;;;15.88;6.43;;;;;;;11.56;83.81;102428.13;5069446;28;20036;-73
2022/08/07 01:45:10;;;;;;;18.63;7.22;;;;;;;11.53;84.17;102427.31;5071677;28;20029;-73
2022/08/07 01:47:36;;;;;;;17.48;7.03;;;;;;;11.54;84.03;102425.50;5058606;28;20078;-73
2022/08/07 01:50:01;;;;;;;14.63;5.57;;;;;;;11.53;83.84;102419.22;5065448;28;20124;-73
2022/08/07 01:52:30;;;;;;;18.60;7.53;;;;;;;11.52;83.79;102424.69;5070087;28;20020;-73
2022/08/07 01:54:57;;;;;;;16.45;6.97;;;;;;;11.50;84.35;102426.59;5069450;28;20032;-73
2022/08/07 01:57:27;;;;;;;19.02;7.20;;;;;;;11.50;84.38;102423.91;5069272;28;20037;-73
2022/08/07 01:59:56;;;;;;;15.57;6.65;;;;;;;11.49;84.17;102427.53;5066189;28;20034;-73
2022/08/07 02:02:28;;;;;;;17.30;6.22;;;;;;;11.46;84.53;102425.88;5068507;28;20028;-73
2022/08/07 02:05:01;;;;;;;15.73;6.47;;;;;;;11.42;84.72;102427.00;5069033;28;20032;-73
2022/08/07 02:07:31;;;;;;;19.45;6.88;;;;;;;11.41;84.85;102419.88;5070758;28;20480;-73
2022/08/07 02:09:58;;;;;;;18.80;7.35;;;;;;;11.42;84.44;102426.13;5066921;28;20036;-73
2022/08/07 02:12:25;;;;;;;20.20;7.63;;;;;;;11.39;84.11;102423.59;5063413;28;20037;-73
2022/08/07 02:14:54;;;;;;;19.60;7.10;;;;;;;11.39;84.86;102421.78;5063418;28;20032;-73
2022/08/07 02:17:21;;;;;;;19.80;8.57;;;;;;;11.37;84.93;102419.16;5071037;28;20495;-73
2022/08/07 02:19:48;;;;;;;18.35;7.18;;;;;;;11.36;84.63;102425.50;5070110;28;20044;-73
2022/08/07 02:22:18;;;;;;;18.05;7.13;;;;;;;11.35;85.11;102418.38;5068675;28;20142;-73
2022/08/07 02:24:46;;;;;;;21.33;7.47;;;;;;;11.36;85.11;102421.91;5069990;28;20032;-73
2022/08/07 02:27:14;;;;;;;20.45;7.38;;;;;;;11.33;84.54;102422.09;5070123;28;20407;-73
2022/08/07 02:29:40;;;;;;;17.33;6.70;;;;;;;11.30;84.82;102422.25;5071087;28;20044;-73
2022/08/07 02:32:08;;;;;;;17.15;7.35;;;;;;;11.29;85.00;102418.69;5069961;28;20036;-73
2022/08/07 02:34:36;;;;;;;19.65;7.22;;;;;;;11.32;84.87;102420.34;5073933;28;20422;-73
2022/08/07 02:37:04;;;;;;;19.20;7.97;;;;;;;11.30;84.90;102416.84;5074457;28;20032;-73
2022/08/07 02:39:31;;;;;;;19.90;8.35;;;;;;;11.29;85.03;102416.00;5075058;28;20029;-73
2022/08/07 02:41:57;;;;;;;18.13;7.35;;;;;;;11.26;85.25;102416.16;5072596;28;20090;-73
2022/08/07 02:44:24;;;;;;;18.13;7.03;;;;;;;11.24;84.69;102418.03;5072344;28;20434;-73
2022/08/07 02:46:52;;;;;;;18.60;7.00;;;;;;;11.18;84.69;102413.84;5074023;28;20082;-73
2022/08/07 02:49:17;;;;;;;22.08;8.10;;;;;;;11.14;85.04;102409.59;5074660;28;20036;-73
2022/08/07 02:51:44;;;;;;;16.67;6.22;;;;;;;11.12;84.87;102408.78;5070302;28;20024;-73
2022/08/07 02:54:11;;;;;;;17.48;6.95;;;;;;;11.10;84.93;102396.34;5071583;28;20024;-73
2022/08/07 02:56:39;;;;;;;19.23;7.20;;;;;;;11.06;84.96;102400.16;5060244;28;20123;-73
2022/08/07 02:59:09;;;;;;;18.70;7.35;;;;;;;11.06;85.19;102401.00;5072631;28;20034;-73
2022/08/07 03:01:37;;;;;;;17.85;7.45;;;;;;;11.06;84.98;102400.16;5070565;28;20487;-73
2022/08/07 03:04:05;;;;;;;18.30;7.82;;;;;;;11.04;85.00;102396.66;5070427;28;20074;-73
2022/08/07 03:06:32;;;;;;;17.05;6.57;;;;;;;10.98;84.71;102404.09;5068751;28;20426;-73
2022/08/07 03:08:57;;;;;;;17.38;6.88;;;;;;;10.96;84.86;102399.75;5063427;28;20043;-73
2022/08/07 03:11:23;;;;;;;17.77;6.78;;;;;;;10.94;84.98;102401.66;5073131;28;20174;-73
2022/08/07 03:13:49;;;;;;;16.95;7.20;;;;;;;10.91;84.78;102402.66;5071997;28;20484;-73
2022/08/07 03:16:16;;;;;;;18.63;7.13;;;;;;;10.89;85.24;102396.47;5071242;28;20541;-73
2022/08/07 03:18:41;;;;;;;18.95;7.45;;;;;;;10.89;85.47;102401.84;5073202;28;20091;-73
2022/08/07 03:21:07;;;;;;;16.60;7.15;;;;;;;10.89;85.41;102398.31;5072202;28;20056;-73
2022/08/07 03:23:34;;;;;;;18.40;7.03;;;;;;;10.88;85.68;102407.31;5072217;28;20465;-73
2022/08/07 03:26:02;;;;;;;20.80;7.18;;;;;;;10.87;85.00;102401.06;5072652;28;20028;-73
2022/08/07 03:28:29;;;;;;;15.48;7.05;;;;;;;10.88;85.63;102399.25;5072658;28;20032;-73
2022/08/07 03:31:17;;;;;;;17.83;6.80;;;;;;;10.86;86.10;102403.84;5072401;28;20052;-73
2022/08/07 03:33:43;;;;;;;21.15;8.02;;;;;;;10.84;85.57;102394.00;5066704;28;20098;-73
2022/08/07 03:36:13;;;;;;;18.77;7.53;;;;;;;10.82;85.66;102395.91;5070414;28;20040;-73
2022/08/07 03:38:40;;;;;;;19.67;7.88;;;;;;;10.84;85.39;102396.69;5065923;28;20032;-73
2022/08/07 03:41:06;;;;;;;20.95;7.78;;;;;;;10.81;85.79;102396.00;5070304;28;20130;-73
2022/08/07 03:43:32;;;;;;;19.13;7.72;;;;;;;10.79;85.55;102395.19;5070998;28;20024;-73
2022/08/07 03:45:58;;;;;;;16.65;6.50;;;;;;;10.78;85.70;102393.47;5070722;28;20073;-73
2022/08/07 03:48:25;;;;;;;17.65;7.18;;;;;;;10.77;85.43;102403.34;5073492;28;20115;-73
2022/08/07 03:50:51;;;;;;;16.38;6.40;;;;;;;10.75;85.77;102399.84;5070275;28;20036;-73
2022/08/07 03:53:16;;;;;;;18.17;7.25;;;;;;;10.73;85.75;102400.88;5071639;28;20029;-73
2022/08/07 03:55:42;;;;;;;19.30;7.63;;;;;;;10.72;85.51;102407.19;5073233;28;20027;-73
2022/08/07 03:58:08;;;;;;;20.38;8.30;;;;;;;10.73;86.09;102407.16;5062399;28;20016;-73
2022/08/07 04:00:35;;;;;;;18.58;6.97;;;;;;;10.72;86.08;102404.50;5066587;28;20021;-73
2022/08/07 04:03:01;;;;;;;18.10;7.75;;;;;;;10.72;85.94;102405.38;5072460;28;20027;-73
2022/08/07 04:05:26;;;;;;;19.58;7.55;;;;;;;10.74;85.81;102414.25;5072354;28;20476;-73
2022/08/07 04:07:52;;;;;;;20.45;7.95;;;;;;;10.75;86.00;102418.69;5071023;28;20035;-73
2022/08/07 04:10:18;;;;;;;19.98;7.90;;;;;;;10.76;86.32;102423.13;5073104;28;20545;-73
2022/08/07 04:12:43;;;;;;;19.80;7.70;;;;;;;10.76;86.21;102417.75;5070893;28;20036;-73
2022/08/07 04:15:10;;;;;;;18.88;7.95;;;;;;;10.76;86.27;102412.38;5071960;28;20020;-73
2022/08/07 04:17:36;;;;;;;18.35;7.22;;;;;;;10.75;85.90;102418.69;5072622;28;20028;-73
2022/08/07 04:20:01;;;;;;;19.65;8.38;;;;;;;10.74;86.25;102421.44;5071803;28;20115;-73
2022/08/07 04:22:27;;;;;;;19.15;7.70;;;;;;;10.71;85.63;102418.91;5071735;28;20029;-73
2022/08/07 04:24:53;;;;;;;18.50;8.20;;;;;;;10.64;85.54;102424.59;5070606;28;20543;-73
2022/08/07 04:27:18;;;;;;;19.67;8.40;;;;;;;10.62;85.71;102428.28;5071103;28;20027;-73
2022/08/07 04:29:43;;;;;;;21.30;8.30;;;;;;;10.61;85.67;102421.16;5071808;28;20389;-73
2022/08/07 04:32:10;;;;;;;19.80;8.27;;;;;;;10.56;85.75;102423.22;5070241;28;20066;-73
2022/08/07 04:34:35;;;;;;;20.15;7.93;;;;;;;10.54;85.81;102423.28;5063040;28;20108;-73
2022/08/07 04:37:01;;;;;;;18.73;8.32;;;;;;;10.52;85.71;102422.47;5070105;28;20162;-73
2022/08/07 04:39:28;;;;;;;24.17;7.78;;;;;;;10.54;86.25;102428.66;5069636;28;20029;-73
2022/08/07 04:41:53;;;;;;;18.88;8.18;;;;;;;10.54;86.31;102427.78;5069778;28;20024;-73
2022/08/07 04:44:19;;;;;;;23.20;7.63;;;;;;;10.53;86.16;102421.53;5057771;28;20385;-73
2022/08/07 04:46:55;;;;;;;19.85;8.13;;;;;;;10.54;86.85;102422.41;5069708;28;20059;-73
2022/08/07 04:49:40;;;;;;;17.58;7.25;;;;;;;10.57;86.28;102430.31;5071543;28;20123;-73
2022/08/07 04:52:17;;;;;;;20.35;8.32;;;;;;;10.62;87.66;102436.38;5066796;28;20021;-73
2022/08/07 04:54:47;;;;;;;20.85;8.75;;;;;;;10.65;87.34;102433.53;5069438;28;20392;-73
2022/08/07 04:57:12;;;;;;;20.10;8.13;;;;;;;10.68;88.04;102428.00;5071494;28;20032;-73
2022/08/07 04:59:56;;;;;;;20.95;7.80;;;;;;;10.70;87.76;102427.91;5071065;28;20103;-73
2022/08/07 05:02:29;;;;;;;18.00;7.55;;;;;;;10.73;87.97;102427.75;5071014;28;20028;-73
2022/08/07 05:05:05;;;;;;;18.48;7.53;;;;;;;10.76;87.84;102425.81;5071947;28;20044;-73
2022/08/07 05:07:42;;;;;;;19.30;7.97;;;;;;;10.77;87.83;102435.59;5057012;28;20515;-73
2022/08/07 05:10:15;;;;;;;20.45;8.25;;;;;;;10.82;88.23;102441.66;5069944;28;20024;-73
2022/08/07 05:13:02;;;;;;;21.63;8.50;;;;;;;10.89;87.99;102427.88;5069120;28;20047;-73
2022/08/07 05:15:34;;;;;;;20.17;7.68;;;;;;;10.94;88.57;102436.63;5059083;28;20116;-73
2022/08/07 05:18:17;;;;;;;18.92;8.13;;;;;;;11.00;88.74;102431.78;5065491;28;20503;-73
2022/08/07 05:20:48;;;;;;;19.92;7.95;;;;;;;11.06;89.25;102438.69;5069660;28;20096;-73
2022/08/07 05:23:24;;;;;;;20.10;7.82;;;;;;;11.13;89.07;102442.81;5070705;28;20537;-73
2022/08/07 05:25:51;;;;;;;20.80;8.50;;;;;;;11.22;89.69;102441.47;5058179;28;20123;-73
2022/08/07 05:28:18;;;;;;;18.23;7.72;;;;;;;11.30;90.33;102454.53;5069593;28;20095;-73
2022/08/07 05:30:45;;;;;;;19.58;7.88;;;;;;;11.37;90.53;102453.28;5070938;28;20118;-73
2022/08/07 05:33:12;;;;;;;21.10;8.50;;;;;;;11.44;90.52;102443.94;5068949;28;20036;-73
2022/08/07 05:35:39;;;;;;;19.42;8.23;;;;;;;11.53;90.52;102450.69;5069633;28;20029;-73
2022/08/07 05:38:05;;;;;;;18.58;7.60;;;;;;;11.60;90.74;102449.41;5067286;28;20028;-73
2022/08/07 05:40:35;;;;;;;20.30;8.07;;;;;;;11.67;90.97;102449.94;5070513;28;20551;-73
2022/08/07 05:43:00;;;;;;;20.85;8.18;;;;;;;11.75;91.18;102447.72;5069458;28;20026;-73
2022/08/07 05:45:27;;;;;;;27.58;8.93;;;;;;;11.84;90.98;102458.00;5071756;28;20111;-73
2022/08/07 05:47:53;;;;;;;19.77;8.65;;;;;;;11.91;91.18;102455.00;5065852;28;20078;-73
2022/08/07 05:50:19;;;;;;;21.25;8.00;;;;;;;11.99;91.70;102447.41;5069754;28;20476;-73
2022/08/07 05:52:45;;;;;;;20.10;8.40;;;;;;;12.07;91.78;102445.19;5068808;28;20029;-73
2022/08/07 05:55:10;;;;;;;19.77;7.95;;;;;;;12.13;91.54;102442.13;5071075;28;20078;-73
2022/08/07 05:57:36;;;;;;;19.95;8.80;;;;;;;12.21;91.17;102448.00;5070818;28;20029;-73
2022/08/07 06:00:03;;;;;;;18.90;7.72;;;;;;;12.29;91.41;102449.41;5061826;28;20037;-73
2022/08/07 06:02:31;;;;;;;22.95;9.05;;;;;;;12.35;91.36;102451.75;5066886;28;20024;-73
2022/08/07 06:05:05;;;;;;;22.88;8.65;;;;;;;12.43;91.24;102454.03;5069823;28;20016;-73
2022/08/07 06:07:32;;;;;;;20.67;8.95;;;;;;;12.47;90.70;102453.75;5073204;28;20470;-73
2022/08/07 06:09:58;;;;;;;21.05;8.88;;;;;;;12.56;91.94;102458.66;5072113;28;20055;-73
2022/08/07 06:12:24;;;;;;;19.92;9.05;;;;;;;12.63;91.47;102453.78;5072037;28;20055;-73
2022/08/07 06:14:49;;;;;;;21.23;9.13;;;;;;;12.70;91.46;102451.63;5073041;28;20583;-73
2022/08/07 06:17:16;;;;;;;20.55;8.95;;;;;;;12.76;91.13;102452.13;5075202;28;20071;-73
2022/08/07 06:19:42;;;;;;;19.33;8.52;;;;;;;12.85;91.37;102457.97;5073910;28;20166;-73
2022/08/07 06:22:08;;;;;;;21.30;9.35;;;;;;;12.90;91.19;102456.75;5072014;28;20115;-73
2022/08/07 06:24:35;;;;;;;21.08;7.97;;;;;;;12.98;91.09;102458.97;5075189;28;20116;-73
2022/08/07 06:27:00;;;;;;;21.25;8.40;;;;;;;13.06;90.67;102458.53;5068764;28;20056;-73
2022/08/07 06:29:27;;;;;;;23.05;10.55;;;;;;;13.13;90.73;102456.34;5074380;28;20049;-73
2022/08/07 06:31:52;;;;;;;20.05;9.27;;;;;;;13.21;90.00;102457.66;5071587;28;20075;-73
2022/08/07 06:34:18;;;;;;;21.17;8.70;;;;;;;13.27;89.35;102459.97;5073375;28;20071;-73
2022/08/07 06:36:43;;;;;;;22.90;9.02;;;;;;;13.37;88.49;102463.06;5069468;28;20025;-73
2022/08/07 06:39:08;;;;;;;21.23;8.90;;;;;;;13.44;87.23;102471.63;5072469;28;20081;-73
2022/08/07 06:41:39;;;;;;;23.60;9.70;;;;;;;13.53;88.16;102454.91;5074171;28;20020;-73
2022/08/07 06:44:05;;;;;;;22.23;9.50;;;;;;;13.61;87.39;102454.44;5073379;28;20074;-73
2022/08/07 06:46:31;;;;;;;23.23;9.57;;;;;;;13.69;87.52;102454.84;5069065;28;20025;-73
2022/08/07 06:48:56;;;;;;;22.63;9.07;;;;;;;13.76;86.10;102455.31;5072285;28;20033;-73
2022/08/07 06:51:26;;;;;;;20.95;8.35;;;;;;;13.82;86.19;102449.53;5067489;28;20032;-74
2022/08/07 06:53:56;;;;;;;20.52;8.57;;;;;;;13.91;85.33;102451.69;5074458;28;20102;-74
2022/08/07 06:56:38;;;;;;;21.63;9.02;;;;;;;13.99;84.24;102452.06;5068304;28;20036;-74
2022/08/07 06:59:08;;;;;;;21.27;9.40;;;;;;;14.06;82.54;102441.75;5072497;28;20680;-74
2022/08/07 07:01:35;;;;;;;21.40;9.30;;;;;;;14.13;81.88;102431.44;5071194;28;20033;-74
2022/08/07 07:04:02;;;;;;;21.55;9.30;;;;;;;14.19;82.34;102431.03;5071757;28;20043;-74
2022/08/07 07:06:27;;;;;;;20.95;8.90;;;;;;;14.28;82.27;102435.00;5067244;28;20388;-74
2022/08/07 07:08:53;;;;;;;21.50;8.32;;;;;;;14.32;80.42;102440.09;5065215;28;20025;-74
2022/08/07 07:11:18;;;;;;;20.45;8.13;;;;;;;14.40;80.71;102441.44;5065383;28;20075;-74
2022/08/07 07:13:48;;;;;;;19.60;8.00;;;;;;;14.44;79.91;102445.72;5073039;28;20035;-74
2022/08/07 07:16:17;;;;;;;20.42;7.90;;;;;;;14.50;78.76;102448.88;5072997;28;20377;-74
2022/08/07 07:18:56;;;;;;;21.13;8.35;;;;;;;14.59;80.15;102449.25;5073518;28;20024;-74
2022/08/07 07:21:26;;;;;;;18.85;7.97;;;;;;;14.66;79.84;102454.19;5071855;28;20024;-74
2022/08/07 07:23:52;;;;;;;20.45;8.43;;;;;;;14.72;77.69;102447.50;5061364;28;20029;-74
2022/08/07 07:26:21;;;;;;;18.98;7.50;;;;;;;14.77;77.54;102450.75;5070126;28;20024;-74
2022/08/07 07:28:53;;;;;;;21.02;8.30;;;;;;;14.89;77.95;102450.94;5072612;28;20440;-74
2022/08/07 07:31:32;;;;;;;21.10;9.23;;;;;;;14.95;77.93;102443.28;5072529;28;20040;-74
2022/08/07 07:34:02;;;;;;;;;;;;;;;15.02;79.35;102439.22;5073035;28;20032;-73
2022/08/07 07:36:28;;;;;;;17.90;6.28;;;;;;;15.01;71.81;102448.28;5072636;28;19912;-72
2022/08/07 07:38:54;;;;;;;20.77;6.90;;;;;;;15.07;73.20;102443.44;5070416;28;20054;-72
2022/08/07 07:41:22;;;;;;;15.20;4.93;;;;;;;15.03;70.12;102432.78;5067204;28;20020;-72
2022/08/07 07:43:50;;;;;;;13.20;4.28;;;;;;;15.06;69.41;102430.88;5070612;28;20032;-71
2022/08/07 07:46:16;;;;;;;16.38;5.85;;;;;;;15.12;70.29;102431.31;5062937;28;20032;-71
2022/08/07 07:48:42;;;;;;;21.98;8.85;;;;;;;15.24;74.87;102432.31;5069317;28;20051;-71
2022/08/07 07:51:08;;;;;;;16.80;5.60;;;;;;;15.25;71.78;102431.34;5066743;28;20048;-71
2022/08/07 07:53:36;;;;;;;19.00;7.25;;;;;;;15.36;73.74;102428.78;5067255;28;20028;-71
2022/08/07 07:56:03;;;;;;;12.75;4.60;;;;;;;15.37;69.62;102430.53;5069331;28;20027;-71
2022/08/07 07:58:32;;;;;;;16.25;5.28;;;;;;;15.44;72.05;102425.53;5067674;28;20484;-71
2022/08/07 08:00:59;;;;;;;17.10;4.93;;;;;;;15.46;70.05;102423.63;5067987;28;20025;-71
2022/08/07 08:03:27;;;;;;;12.55;4.50;;;;;;;15.54;70.89;102410.38;5071151;28;20055;-71
2022/08/07 08:05:53;;;;;;;14.30;4.47;;;;;;;15.56;69.68;102418.41;5069764;28;20067;-70
2022/08/07 08:08:19;;;;;;;17.25;5.60;;;;;;;15.65;70.54;102416.91;5077648;28;20035;-71
2022/08/07 08:10:45;;;;;;;16.77;5.80;;;;;;;15.67;71.56;102426.66;5069314;28;20396;-71
2022/08/07 08:13:13;;;;;;;12.05;4.32;;;;;;;15.71;69.87;102428.19;5070476;28;20385;-71
2022/08/07 08:15:39;;;;;;;17.77;6.05;;;;;;;15.79;70.60;102421.41;5069375;28;20115;-71
2022/08/07 08:18:08;;;;;;;19.83;6.80;;;;;;;15.90;71.92;102427.78;5069420;28;20107;-71
2022/08/07 08:20:34;;;;;;;16.52;5.90;;;;;;;15.98;71.97;102427.25;5063818;28;20123;-71
2022/08/07 08:28:36;;;;;;;13.30;4.82;;;;;;;16.25;69.56;102421.69;5070252;28;20125;-71
2022/08/07 08:31:03;;;;;;;18.13;5.65;;;;;;;16.34;70.55;102420.16;5067655;28;20051;-71
2022/08/07 08:33:35;;;;;;;18.63;6.47;;;;;;;16.44;70.56;102425.75;5065194;28;20546;-71
2022/08/07 08:36:02;;;;;;;13.50;4.72;;;;;;;16.49;67.70;102429.00;5069512;28;20590;-71
2022/08/07 08:38:37;;;;;;;13.27;4.20;;;;;;;16.55;69.07;102425.84;5070627;28;20472;-71
2022/08/07 08:41:35;;;;;;;12.45;4.25;;;;;;;16.61;69.65;102427.25;5069740;28;20012;-71
2022/08/07 08:44:07;;;;;;;17.20;5.43;;;;;;;16.68;68.09;102427.66;5042856;28;20037;-72
2022/08/07 08:46:43;;;;;;;13.88;5.03;;;;;;;16.80;67.25;102428.59;5069366;28;20028;-72
2022/08/07 08:49:44;;;;;;;13.85;4.57;;;;;;;16.89;68.54;102427.94;5070577;28;20403;-72
2022/08/07 08:52:27;;;;;;;12.95;4.40;;;;;;;16.92;68.59;102428.56;5023911;28;20049;-72
2022/08/07 08:55:00;;;;;;;13.63;4.55;;;;;;;17.00;66.45;102424.41;5020945;28;20033;-72
2022/08/07 08:57:33;;;;;;;14.43;4.85;;;;;;;17.08;67.05;102421.97;5023974;28;20092;-71
2022/08/07 09:00:07;;;;;;;14.68;4.78;;;;;;;17.14;67.67;102426.06;5023083;28;20034;-72
2022/08/07 09:02:38;;;;;;;14.65;4.63;;;;;;;17.18;67.78;102425.72;5019849;28;20045;-72
2022/08/07 09:05:19;;;;;;;13.68;4.28;;;;;;;17.17;67.61;102417.69;5024638;28;20057;-72
2022/08/07 09:07:52;;;;;;;13.82;5.18;;;;;;;17.25;67.55;102421.56;5021080;28;20032;-72
2022/08/07 09:10:26;;;;;;;13.60;5.30;;;;;;;17.34;66.45;102417.25;5018323;28;20042;-72
2022/08/07 09:13:29;;;;;;;12.02;4.35;;;;;;;17.38;67.01;102416.03;5010355;28;20529;-72
2022/08/07 09:16:16;;;;;;;16.30;4.65;;;;;;;17.50;63.83;102410.63;5022896;28;20046;-72
2022/08/07 09:19:08;;;;;;;9.95;3.67;;;;;;;17.52;66.05;102414.94;5025261;28;20079;-72
2022/08/07 09:22:07;;;;;;;12.95;4.20;;;;;;;17.57;65.73;102409.16;5026924;28;20037;-72
2022/08/07 09:24:47;;;;;;;13.23;4.72;;;;;;;17.63;63.34;102411.41;5019084;28;20041;-72
2022/08/07 09:27:49;;;;;;;12.23;4.15;;;;;;;17.69;64.56;102412.75;5015109;28;20045;-72
2022/08/07 09:30:16;;;;;;;15.48;5.57;;;;;;;17.78;63.82;102407.47;5058084;28;20733;-72
2022/08/07 09:32:56;;;;;;;13.70;4.32;;;;;;;17.84;65.52;102407.97;5057884;28;20056;-72
2022/08/07 09:35:59;;;;;;;15.23;4.85;;;;;;;17.82;64.65;102403.53;5058878;28;20086;-72
2022/08/07 09:38:56;;;;;;;14.18;4.47;;;;;;;17.87;64.29;102403.16;5056632;28;20387;-72
2022/08/07 09:41:24;;;;;;;9.13;3.20;;;;;;;17.88;66.16;102395.84;5058582;28;20032;-72
2022/08/07 09:44:02;;;;;;;8.85;3.55;;;;;;;17.90;65.50;102399.34;5055304;28;20032;-73
2022/08/07 09:46:51;;;;;;;16.10;4.68;;;;;;;17.98;62.31;102399.63;5055385;28;20036;-74
2022/08/07 09:49:44;;;;;;;16.27;4.55;;;;;;;18.03;61.35;102394.66;5053201;28;20028;-73
2022/08/07 09:52:35;;;;;;;12.27;4.50;;;;;;;18.07;64.20;102396.16;5055694;28;20498;-73
2022/08/07 09:55:13;;;;;;;15.10;4.97;;;;;;;18.15;61.27;102388.22;5055759;28;20173;-72
2022/08/07 09:58:16;;;;;;;12.82;4.28;;;;;;;18.23;61.10;102390.34;5054561;28;20040;-73
2022/08/07 10:01:16;;;;;;;20.13;7.57;;;;;;;18.30;60.57;102386.13;5070243;28;20028;-73
2022/08/07 10:04:01;;;;;;;;;;;;;;;18.35;61.45;102388.47;5056082;28;20030;-73
2022/08/07 10:06:35;;;;;;;13.88;4.55;;;;;;;18.47;58.41;102376.53;5054867;28;20948;-73
2022/08/07 10:09:22;;;;;;;11.32;3.88;;;;;;;18.46;61.10;102373.94;5055422;28;20036;-73
2022/08/07 10:12:16;;;;;;;12.65;4.38;;;;;;;18.50;59.92;102370.84;5055923;28;20079;-73
2022/08/07 10:15:08;;;;;;;12.98;4.18;;;;;;;18.54;57.76;102370.59;5055632;28;20527;-73
2022/08/07 10:17:39;;;;;;;10.88;3.80;;;;;;;18.58;57.00;102363.91;5056137;28;20173;-73
2022/08/07 10:20:13;;;;;;;7.03;3.00;;;;;;;18.60;55.36;102367.38;5056957;28;20060;-73
2022/08/07 10:23:11;;;;;;;10.20;3.08;;;;;;;18.61;57.49;102361.78;5056544;28;20040;-73
2022/08/07 10:25:56;;;;;;;11.40;3.58;;;;;;;18.69;57.23;102361.16;5055724;28;20028;-73
2022/08/07 10:28:40;;;;;;;13.68;4.55;;;;;;;18.76;55.04;102365.09;5054947;28;20662;-73
2022/08/07 10:31:16;;;;;;;12.15;4.22;;;;;;;18.89;55.77;102364.06;5055064;28;20048;-73
2022/08/07 10:34:02;;;;;;;9.82;3.45;;;;;;;18.91;57.15;102362.94;5054867;28;20480;-73
2022/08/07 10:36:37;;;;;;;11.50;4.07;;;;;;;18.95;53.62;102358.13;5055808;28;20033;-73
2022/08/07 10:39:35;;;;;;;8.05;3.38;;;;;;;18.96;57.64;102354.38;5055181;28;20038;-73
2022/08/07 10:42:21;;;;;;;12.75;4.53;;;;;;;18.99;55.72;102345.94;5053431;28;20044;-73
2022/08/07 10:45:05;;;;;;;13.00;4.05;;;;;;;19.02;55.82;102351.16;5066484;28;20024;-73
2022/08/07 10:47:46;;;;;;;10.80;3.63;;;;;;;19.04;58.01;102349.16;5064311;28;20535;-73
2022/08/07 10:50:20;;;;;;;7.93;3.08;;;;;;;19.06;58.45;102344.41;5067640;28;20047;-73
2022/08/07 10:53:06;;;;;;;14.05;4.47;;;;;;;19.13;54.57;102334.72;5068577;28;20512;-73
2022/08/07 10:55:59;;;;;;;10.52;3.42;;;;;;;19.18;53.89;102353.41;5064216;28;20107;-73
2022/08/07 10:58:43;;;;;;;9.30;3.53;;;;;;;19.17;55.23;102338.91;5058316;28;20116;-74
2022/08/07 11:01:18;;;;;;;6.78;3.00;;;;;;;19.26;52.73;102334.53;5062964;28;20087;-73
2022/08/07 11:04:11;;;;;;;11.02;4.18;;;;;;;19.33;52.93;102334.88;5066755;28;20025;-73
2022/08/07 11:07:21;;;;;;;10.32;3.85;;;;;;;19.41;55.18;102326.00;5055871;28;20089;-73
2022/08/07 11:09:54;;;;;;;11.27;3.63;;;;;;;19.49;51.76;102335.25;5030915;28;20200;-73
2022/08/07 11:12:27;;;;;;;7.65;3.05;;;;;;;19.48;54.12;102310.84;5026842;28;20037;-73
2022/08/07 11:14:57;;;;;;;13.75;3.60;;;;;;;19.49;52.13;102318.88;5029844;28;20168;-73
2022/08/07 11:17:31;;;;;;;10.05;3.67;;;;;;;19.51;53.15;102314.16;5026877;28;20037;-73
2022/08/07 11:20:15;;;;;;;9.82;3.65;;;;;;;19.58;49.10;102308.16;5003354;28;20029;-73
2022/08/07 11:22:54;;;;;;;10.25;3.22;;;;;;;19.60;53.44;102308.91;5019876;28;20084;-72
2022/08/07 11:25:43;;;;;;;11.38;3.65;;;;;;;19.66;52.98;102305.63;5020708;28;20606;-72
2022/08/07 11:28:15;;;;;;;12.38;3.80;;;;;;;19.71;51.89;102295.16;5016609;28;20485;-72
2022/08/07 11:30:50;;;;;;;10.80;3.50;;;;;;;19.68;55.20;102298.19;5029773;28;20046;-72
2022/08/07 11:33:41;;;;;;;11.73;3.78;;;;;;;19.77;53.54;102297.34;5029729;28;20087;-72
2022/08/07 11:36:06;;;;;;;9.82;3.55;;;;;;;19.90;50.40;102298.00;5012249;28;20111;-72
2022/08/07 11:39:02;;;;;;;11.27;3.42;;;;;;;20.00;52.16;102291.69;5019557;28;20096;-72
2022/08/07 11:41:36;;;;;;;10.77;3.88;;;;;;;20.06;50.94;102282.97;5029586;28;20029;-73